Archer, Nebraska
Current Conditions -  °F | °C
As of 9:53 PM on Wednesday 22 Oct 2014 (Local Time) from KGRI Reporting Station
Moderate Fog Moderate Fog  
Wind Chill: 56°   Ceiling: 1500
Heat Index: 56°   Visibility: 0.25mi
Dew Point: 55°   Wind: 0mph
Humidity: 97%   Direction: NA
Pressure: 30.05"   Gusts: NA
Location:  41.17°N, 98.14°W
Report Text: KGRI 230253Z AUTO 00000KT 1/4SM R35/1600V2400FT FG OVC015 13/13 A3005 RMK AO2 SLP171 T01330128 52010
Loading
Personal Weather Stations






























Interactive Weather Map
Tropical Storm Tracking
New forecast layout! Learn more

10-Day Weather Forecast

Advertisements
Track Severe Weather on mobile